Windom, Indiana
Current Conditions -  °F | °C
As of 2:15 AM on Monday 24 Nov 2014 (Local Time) from KDCY Reporting Station
Drizzle Drizzle  
Wind Chill: 15°   Ceiling: 1400
Heat Index: 15°   Visibility: 10mi
Dew Point: 15°   Wind: 18mph
Humidity: 100%   Direction: 190°S
Pressure: 29.25"   Gusts: 23mph
Location:  38.6262°N, 86.7615°W
Report Text: KDCY 240815Z AUTO 19016G20KT 10SM -DZ OVC014 15/15 A2925 RMK AO2 LTG DSNT W T01450145
Loading
Personal Weather Stations






























Interactive Weather Map New forecast layout! Learn more

10-Day Weather Forecast

Advertisements
Track Severe Weather on mobile